Terminal Aerodrome Forecast
Issued by NWS Buffalo, NY

Home | Current Version | Previous Version | Text Only | Print | Product List | Glossary On
Versions: 1 2 3 4 5 6 7 8 9 10 11 12 13 14 15 16 17 18 19 20 21 22 23 24 25 26 27
897
FTUS41 KBUF 041740
TAFBUF
TAF
KBUF 041740Z 0418/0518 05006KT P6SM SCT040 BKN060
     FM042200 05007KT P6SM SCT045 BKN200
     FM050800 04005KT P6SM SCT015 BKN150
     FM051200 06006KT P6SM SCT015 OVC070
     FM051500 05011KT P6SM SCT035 OVC070=

USA.gov is the U.S. government's official web portal to all federal, state and local government web resources and services.